createdAt,value
2023-04-27T00:01:53.408Z,5.40
2023-04-27T00:04:20.744Z,5.40
2023-04-27T00:06:47.779Z,5.40
2023-04-27T00:09:14.761Z,5.40
2023-04-27T00:11:41.728Z,5.40
2023-04-27T00:14:08.502Z,5.40
2023-04-27T00:16:35.260Z,5.30
2023-04-27T00:19:02.152Z,5.40
2023-04-27T00:21:28.984Z,5.30
2023-04-27T00:23:55.804Z,5.30
2023-04-27T00:26:22.689Z,5.30
2023-04-27T00:28:51.631Z,5.30
2023-04-27T00:31:18.584Z,5.20
2023-04-27T00:33:45.367Z,5.20
2023-04-27T00:36:12.090Z,5.10
2023-04-27T00:38:38.822Z,5.10
2023-04-27T00:41:06.915Z,5.10
2023-04-27T00:43:41.085Z,5.00
2023-04-27T00:46:08.240Z,5.00
2023-04-27T00:48:35.586Z,5.00
2023-04-27T00:51:02.389Z,5.00
2023-04-27T00:53:29.542Z,4.90
2023-04-27T00:55:58.072Z,4.90
2023-04-27T00:58:24.953Z,4.90
2023-04-27T01:00:52.585Z,4.80
2023-04-27T01:03:19.602Z,4.80
2023-04-27T01:05:46.426Z,4.90
2023-04-27T01:08:14.346Z,4.90
2023-04-27T01:10:41.649Z,4.90
2023-04-27T01:13:10.292Z,4.90
2023-04-27T01:15:38.157Z,4.90
2023-04-27T01:18:09.770Z,4.90
2023-04-27T01:20:36.543Z,4.90
2023-04-27T01:23:03.490Z,4.80
2023-04-27T01:25:30.202Z,4.80
2023-04-27T01:27:56.956Z,4.80
2023-04-27T01:30:23.713Z,4.80
2023-04-27T01:32:51.907Z,4.80
2023-04-27T01:35:19.429Z,4.80
2023-04-27T01:37:46.294Z,4.80
2023-04-27T01:40:13.545Z,4.80
2023-04-27T01:42:40.300Z,4.80
2023-04-27T01:45:09.104Z,4.80
2023-04-27T01:47:35.941Z,4.70
2023-04-27T01:50:02.769Z,4.80
2023-04-27T01:52:29.987Z,4.70
2023-04-27T01:54:56.916Z,4.80
2023-04-27T01:57:23.731Z,4.70
2023-04-27T01:59:50.705Z,4.70
2023-04-27T02:02:17.563Z,4.70
2023-04-27T02:04:45.242Z,4.70
2023-04-27T02:07:12.314Z,4.70
2023-04-27T02:09:39.168Z,4.70
2023-04-27T02:12:06.106Z,4.70
2023-04-27T02:14:32.951Z,4.80
2023-04-27T02:16:59.636Z,4.80
2023-04-27T02:19:26.403Z,4.90
2023-04-27T02:21:53.175Z,4.90
2023-04-27T02:24:19.995Z,4.90
2023-04-27T02:26:46.755Z,4.90
2023-04-27T02:29:13.876Z,4.90
2023-04-27T02:31:42.471Z,5.00
2023-04-27T02:34:09.268Z,5.00
2023-04-27T02:36:36.069Z,5.00
2023-04-27T02:39:03.026Z,5.00
2023-04-27T02:41:32.954Z,4.90
2023-04-27T02:43:59.817Z,4.90
2023-04-27T02:46:27.431Z,4.90
2023-04-27T02:48:55.433Z,4.90
2023-04-27T02:51:23.921Z,4.80
2023-04-27T02:53:52.547Z,4.80
2023-04-27T02:56:19.314Z,4.80
2023-04-27T02:58:47.925Z,4.70
2023-04-27T03:01:15.766Z,4.70
2023-04-27T03:03:44.938Z,4.60
2023-04-27T03:06:11.851Z,4.60
2023-04-27T03:08:38.521Z,4.60
2023-04-27T03:11:05.919Z,4.60
2023-04-27T03:13:41.333Z,4.50
2023-04-27T03:16:11.530Z,4.50
2023-04-27T03:18:39.404Z,4.50
2023-04-27T03:21:06.560Z,4.50
2023-04-27T03:23:33.356Z,4.50
2023-04-27T03:26:00.172Z,4.50
2023-04-27T03:28:27.148Z,4.40
2023-04-27T03:30:58.703Z,4.50
2023-04-27T03:33:27.113Z,4.40
2023-04-27T03:35:57.683Z,4.50
2023-04-27T03:38:25.147Z,4.50
2023-04-27T03:40:52.654Z,4.40
2023-04-27T03:43:20.180Z,4.40
2023-04-27T03:45:47.078Z,4.50
2023-04-27T03:48:14.574Z,4.50
2023-04-27T03:50:41.445Z,4.50
2023-04-27T03:53:08.287Z,4.40
2023-04-27T03:55:38.231Z,4.50
2023-04-27T03:58:05.200Z,4.40
2023-04-27T04:00:32.525Z,4.40
2023-04-27T04:02:59.559Z,4.40
2023-04-27T04:05:26.418Z,4.40
2023-04-27T04:07:53.112Z,4.40
2023-04-27T04:10:19.901Z,4.40
2023-04-27T04:12:48.630Z,4.40
2023-04-27T04:15:27.185Z,4.40
2023-04-27T04:17:56.908Z,4.30
2023-04-27T04:20:23.793Z,4.30
2023-04-27T04:22:50.677Z,4.40
2023-04-27T04:25:17.988Z,4.30
2023-04-27T04:27:44.976Z,4.30
2023-04-27T04:30:12.687Z,4.30
2023-04-27T04:32:40.245Z,4.30
2023-04-27T04:35:07.877Z,4.30
2023-04-27T04:37:35.475Z,4.30
2023-04-27T04:40:09.671Z,4.40
2023-04-27T04:42:40.352Z,4.40
2023-04-27T04:45:08.740Z,4.40
2023-04-27T04:47:36.633Z,4.40
2023-04-27T04:50:04.033Z,4.40
2023-04-27T04:52:31.266Z,4.50
2023-04-27T04:54:58.080Z,4.40
2023-04-27T04:57:24.801Z,4.40
2023-04-27T04:59:51.873Z,4.50
2023-04-27T05:02:18.908Z,4.40
2023-04-27T05:04:45.857Z,4.40
2023-04-27T05:07:15.068Z,4.40
2023-04-27T05:09:42.904Z,4.40
2023-04-27T05:12:09.741Z,4.40
2023-04-27T05:14:36.457Z,4.50
2023-04-27T05:17:03.240Z,4.50
2023-04-27T05:19:31.154Z,4.50
2023-04-27T05:21:58.637Z,4.60
2023-04-27T05:24:26.283Z,4.60
2023-04-27T05:26:53.361Z,4.70
2023-04-27T05:29:20.425Z,4.70
2023-04-27T05:31:47.238Z,4.80
2023-04-27T05:34:14.293Z,4.90
2023-04-27T05:36:41.320Z,5.00
2023-04-27T05:39:08.125Z,5.00
2023-04-27T05:41:35.109Z,5.00
2023-04-27T05:44:01.956Z,5.10
2023-04-27T05:46:28.759Z,5.10
2023-04-27T05:48:58.276Z,5.20
2023-04-27T05:51:25.356Z,5.20
2023-04-27T05:53:55.285Z,5.20
2023-04-27T05:56:22.443Z,5.30
2023-04-27T05:58:49.257Z,5.30
2023-04-27T06:01:16.394Z,5.40
2023-04-27T06:03:43.470Z,5.50
2023-04-27T06:06:10.506Z,5.50
2023-04-27T06:08:37.538Z,5.60
2023-04-27T06:11:12.892Z,5.60
2023-04-27T06:13:39.890Z,5.70
2023-04-27T06:16:11.204Z,5.70
2023-04-27T06:18:43.088Z,5.70
2023-04-27T06:21:09.841Z,5.70
2023-04-27T06:23:36.609Z,5.80
2023-04-27T06:26:03.782Z,5.80
2023-04-27T06:28:30.698Z,5.80
2023-04-27T06:30:59.414Z,5.90
2023-04-27T06:33:26.711Z,5.90
2023-04-27T06:35:53.490Z,6.00
2023-04-27T06:38:20.239Z,6.00
2023-04-27T06:40:50.216Z,6.10
2023-04-27T06:43:16.930Z,6.10
2023-04-27T06:45:43.877Z,6.20
2023-04-27T06:48:10.744Z,6.20
2023-04-27T06:50:37.452Z,6.20
2023-04-27T06:53:04.424Z,6.30
2023-04-27T06:55:31.339Z,6.30
2023-04-27T06:57:58.111Z,6.40
2023-04-27T07:00:24.859Z,6.40
2023-04-27T07:02:51.718Z,6.50
2023-04-27T07:05:18.846Z,6.50
2023-04-27T07:07:45.576Z,6.60
2023-04-27T07:10:12.363Z,6.50
2023-04-27T07:12:39.505Z,6.60
2023-04-27T07:15:07.189Z,6.60
2023-04-27T07:17:34.044Z,6.70
2023-04-27T07:20:06.018Z,6.70
2023-04-27T07:22:33.190Z,6.80
2023-04-27T07:24:59.896Z,6.80
2023-04-27T07:27:26.673Z,6.90
2023-04-27T07:29:53.480Z,6.90
2023-04-27T07:32:21.334Z,7.00
2023-04-27T07:34:53.262Z,7.00
2023-04-27T07:37:21.754Z,7.10
2023-04-27T07:39:48.938Z,7.00
2023-04-27T07:42:16.018Z,7.10
2023-04-27T07:44:42.876Z,7.10
2023-04-27T07:47:10.064Z,7.20
2023-04-27T07:49:37.468Z,7.30
2023-04-27T07:52:04.752Z,7.30
2023-04-27T07:54:31.639Z,7.40
2023-04-27T07:56:58.601Z,7.40
2023-04-27T07:59:28.567Z,7.40
2023-04-27T08:02:04.023Z,7.40
2023-04-27T08:04:34.420Z,7.50
2023-04-27T08:07:01.591Z,7.60
2023-04-27T08:09:29.021Z,7.60
2023-04-27T08:11:57.308Z,7.70
2023-04-27T08:14:24.202Z,7.70
2023-04-27T08:16:52.047Z,7.80
2023-04-27T08:19:18.910Z,7.80
2023-04-27T08:21:45.655Z,7.80
2023-04-27T08:24:12.535Z,7.90
2023-04-27T08:26:40.815Z,8.00
2023-04-27T08:29:15.725Z,8.00
2023-04-27T08:31:51.176Z,8.10
2023-04-27T08:34:18.276Z,8.10
2023-04-27T08:36:45.443Z,8.20
2023-04-27T08:39:12.386Z,8.20
2023-04-27T08:41:41.992Z,8.30
2023-04-27T08:44:08.760Z,8.30
2023-04-27T08:46:37.337Z,8.30
2023-04-27T08:49:04.181Z,8.40
2023-04-27T08:51:32.245Z,8.30
2023-04-27T08:53:59.286Z,8.30
2023-04-27T08:56:27.925Z,8.30
2023-04-27T08:58:55.502Z,8.30
2023-04-27T09:01:22.505Z,8.30
2023-04-27T09:03:49.623Z,8.40
2023-04-27T09:06:16.735Z,8.40
2023-04-27T09:08:44.260Z,8.40
2023-04-27T09:11:11.261Z,8.40
2023-04-27T09:13:38.720Z,8.30
2023-04-27T09:16:05.979Z,8.40
2023-04-27T09:18:35.592Z,8.50
2023-04-27T09:21:04.114Z,8.50
2023-04-27T09:23:31.350Z,8.50
2023-04-27T09:25:59.357Z,8.60
2023-04-27T09:28:27.798Z,8.70
2023-04-27T09:30:55.411Z,8.90
2023-04-27T09:33:32.428Z,9.00
2023-04-27T09:36:00.252Z,9.10
2023-04-27T09:38:27.210Z,9.20
2023-04-27T09:40:54.494Z,9.30
2023-04-27T09:43:22.239Z,9.30
2023-04-27T09:45:49.751Z,9.30
2023-04-27T09:48:17.327Z,9.40
2023-04-27T09:50:44.750Z,9.50
2023-04-27T09:53:13.749Z,9.60
2023-04-27T09:55:44.138Z,9.60
2023-04-27T09:58:26.819Z,9.60
2023-04-27T10:00:53.511Z,9.60
2023-04-27T10:03:38.966Z,9.70
2023-04-27T10:06:24.620Z,9.70
2023-04-27T10:08:51.631Z,9.70
2023-04-27T10:11:23.068Z,9.70
2023-04-27T10:13:54.668Z,9.80
2023-04-27T10:16:22.173Z,9.80
2023-04-27T10:18:54.267Z,9.80
2023-04-27T10:21:21.288Z,9.80
2023-04-27T10:23:49.726Z,10.00
2023-04-27T10:26:24.006Z,10.10
2023-04-27T10:28:58.502Z,10.20
2023-04-27T10:31:29.224Z,10.20
2023-04-27T10:34:09.460Z,10.10
2023-04-27T10:36:37.176Z,10.10
2023-04-27T10:39:14.014Z,10.10
2023-04-27T10:41:48.773Z,10.20
2023-04-27T10:44:34.536Z,10.10
2023-04-27T10:47:02.573Z,10.00
2023-04-27T10:49:30.094Z,10.10
2023-04-27T10:51:58.218Z,10.00
2023-04-27T10:54:28.744Z,10.00
2023-04-27T10:57:02.401Z,10.00
2023-04-27T10:59:29.161Z,10.00
2023-04-27T11:01:55.945Z,10.00
2023-04-27T11:04:22.756Z,10.10
2023-04-27T11:06:50.279Z,10.10
2023-04-27T11:09:27.492Z,10.10
2023-04-27T11:11:54.283Z,10.20
2023-04-27T11:14:41.997Z,10.30
2023-04-27T11:17:09.287Z,10.30
2023-04-27T11:19:48.608Z,10.40
2023-04-27T11:22:18.844Z,10.50
2023-04-27T11:24:49.035Z,10.50
2023-04-27T11:27:16.059Z,10.50
2023-04-27T11:29:42.809Z,10.50
2023-04-27T11:32:18.327Z,10.50
2023-04-27T11:34:49.667Z,10.60
2023-04-27T11:37:21.315Z,10.70
2023-04-27T11:39:48.083Z,10.80
2023-04-27T11:42:18.803Z,10.80
2023-04-27T11:44:52.410Z,10.80
2023-04-27T11:47:19.382Z,10.90
2023-04-27T11:49:46.837Z,10.90
2023-04-27T11:52:13.891Z,10.90
2023-04-27T11:54:46.900Z,11.00
2023-04-27T11:57:13.712Z,10.90
2023-04-27T11:59:40.457Z,10.90
2023-04-27T12:02:07.209Z,10.90
2023-04-27T12:04:34.065Z,10.80
2023-04-27T12:07:01.371Z,10.90
2023-04-27T12:09:28.925Z,10.80
2023-04-27T12:11:56.241Z,10.80
2023-04-27T12:14:24.706Z,10.70
2023-04-27T12:16:51.889Z,10.70
2023-04-27T12:19:18.719Z,10.70
2023-04-27T12:21:45.569Z,10.70
2023-04-27T12:24:12.926Z,10.60
2023-04-27T12:26:39.972Z,10.60
2023-04-27T12:29:07.142Z,10.60
2023-04-27T12:31:34.550Z,10.60
2023-04-27T12:34:01.620Z,10.60
2023-04-27T12:36:28.744Z,10.70
2023-04-27T12:38:59.685Z,10.70
2023-04-27T12:41:26.657Z,10.70
2023-04-27T12:43:53.400Z,10.80
2023-04-27T12:46:20.190Z,10.70
2023-04-27T12:48:47.054Z,10.70
2023-04-27T12:51:14.508Z,10.70
2023-04-27T12:53:41.269Z,10.60
2023-04-27T12:56:08.069Z,10.60
2023-04-27T12:58:35.114Z,10.50
2023-04-27T13:01:01.888Z,10.40
2023-04-27T13:03:28.757Z,10.40
2023-04-27T13:05:55.856Z,10.40
2023-04-27T13:08:22.623Z,10.40
2023-04-27T13:10:49.393Z,10.40
2023-04-27T13:13:16.169Z,10.40
2023-04-27T13:15:43.144Z,10.40
2023-04-27T13:18:10.386Z,10.40
2023-04-27T13:20:37.943Z,10.30
2023-04-27T13:23:04.869Z,10.30
2023-04-27T13:25:31.772Z,10.20
2023-04-27T13:27:58.587Z,10.30
2023-04-27T13:30:25.530Z,10.30
2023-04-27T13:32:53.209Z,10.30
2023-04-27T13:35:20.843Z,10.40
2023-04-27T13:37:48.068Z,10.40
2023-04-27T13:40:14.907Z,10.50
2023-04-27T13:42:41.821Z,10.50
2023-04-27T13:45:08.806Z,10.50
2023-04-27T13:47:39.198Z,10.50
2023-04-27T13:50:10.657Z,10.60
2023-04-27T13:52:38.090Z,10.60
2023-04-27T13:55:05.645Z,10.60
2023-04-27T13:57:32.601Z,10.60
2023-04-27T14:00:02.258Z,10.60
2023-04-27T14:02:34.092Z,10.70
2023-04-27T14:05:01.051Z,10.70
2023-04-27T14:07:27.934Z,10.80
2023-04-27T14:09:54.885Z,10.70
2023-04-27T14:12:21.730Z,10.70
2023-04-27T14:14:49.560Z,10.70
2023-04-27T14:17:16.304Z,10.70
2023-04-27T14:19:43.321Z,10.70
2023-04-27T14:22:13.190Z,10.80
2023-04-27T14:24:40.360Z,10.70
2023-04-27T14:27:07.117Z,10.80
2023-04-27T14:29:37.088Z,10.80
2023-04-27T14:32:04.509Z,10.90
2023-04-27T14:34:31.359Z,10.90
2023-04-27T14:36:58.177Z,10.90
2023-04-27T14:39:24.877Z,10.90
2023-04-27T14:41:51.769Z,10.90
2023-04-27T14:44:18.548Z,10.90
2023-04-27T14:46:45.441Z,10.90
2023-04-27T14:49:12.381Z,11.00
2023-04-27T14:51:39.912Z,10.90
2023-04-27T14:54:11.896Z,10.90
2023-04-27T14:56:46.525Z,10.90
2023-04-27T14:59:16.307Z,10.90
2023-04-27T15:01:47.299Z,10.90
2023-04-27T15:04:17.530Z,10.90
2023-04-27T15:06:45.233Z,10.90
2023-04-27T15:09:14.068Z,10.80
2023-04-27T15:11:47.225Z,10.80
2023-04-27T15:14:17.247Z,10.90
2023-04-27T15:16:54.018Z,10.90
2023-04-27T15:19:24.907Z,10.90
2023-04-27T15:21:52.517Z,10.90
2023-04-27T15:24:30.294Z,10.90
2023-04-27T15:27:00.089Z,10.90
2023-04-27T15:29:33.182Z,10.90
2023-04-27T15:32:05.585Z,11.00
2023-04-27T15:34:37.760Z,10.90
2023-04-27T15:37:08.792Z,10.90
2023-04-27T15:39:35.968Z,10.90
2023-04-27T15:42:03.387Z,10.90
2023-04-27T15:44:38.227Z,10.80
2023-04-27T15:47:08.409Z,10.80
2023-04-27T15:49:53.490Z,10.80
2023-04-27T15:52:24.455Z,10.80
2023-04-27T15:54:54.748Z,10.90
2023-04-27T15:57:32.802Z,10.80
2023-04-27T16:00:04.326Z,10.90
2023-04-27T16:02:52.912Z,10.80
2023-04-27T16:05:24.758Z,10.90
2023-04-27T16:07:56.711Z,10.90
2023-04-27T16:10:26.920Z,10.90
2023-04-27T16:13:02.107Z,10.80
2023-04-27T16:15:29.101Z,10.80
2023-04-27T16:18:02.084Z,10.80
2023-04-27T16:20:31.047Z,10.80
2023-04-27T16:22:58.592Z,10.80
2023-04-27T16:25:29.040Z,10.90
2023-04-27T16:28:01.758Z,10.80
2023-04-27T16:30:33.668Z,10.70
2023-04-27T16:33:00.896Z,10.70
2023-04-27T16:35:29.335Z,10.70
2023-04-27T16:37:56.847Z,10.70
2023-04-27T16:40:26.519Z,10.70
2023-04-27T16:42:56.750Z,10.70
2023-04-27T16:45:27.272Z,10.70
2023-04-27T16:48:00.639Z,10.80
2023-04-27T16:50:31.875Z,10.70
2023-04-27T16:53:30.294Z,10.70
2023-04-27T16:55:59.162Z,10.70
2023-04-27T16:58:30.797Z,10.60
2023-04-27T17:00:58.304Z,10.60
2023-04-27T17:03:39.255Z,10.60
2023-04-27T17:06:15.214Z,10.50
2023-04-27T17:08:42.756Z,10.50
2023-04-27T17:11:10.343Z,10.50
2023-04-27T17:13:40.142Z,10.50
2023-04-27T17:16:13.609Z,10.40
2023-04-27T17:18:46.613Z,10.40
2023-04-27T17:21:17.556Z,10.40
2023-04-27T17:23:59.272Z,10.40
2023-04-27T17:26:26.930Z,10.30
2023-04-27T17:29:02.556Z,10.30
2023-04-27T17:31:34.587Z,10.30
2023-04-27T17:34:07.922Z,10.30
2023-04-27T17:36:36.490Z,10.30
2023-04-27T17:39:04.727Z,10.30
2023-04-27T17:41:36.730Z,10.30
2023-04-27T17:44:07.295Z,10.30
2023-04-27T17:46:39.554Z,10.20
2023-04-27T17:49:09.379Z,10.20
2023-04-27T17:51:42.041Z,10.20
2023-04-27T17:54:12.398Z,10.20
2023-04-27T17:56:47.747Z,10.30
2023-04-27T17:59:24.937Z,10.30
2023-04-27T18:01:52.648Z,10.20
2023-04-27T18:04:22.863Z,10.20
2023-04-27T18:06:50.548Z,10.10
2023-04-27T18:09:17.814Z,10.10
2023-04-27T18:11:48.365Z,10.00
2023-04-27T18:14:23.427Z,9.90
2023-04-27T18:16:53.987Z,9.90
2023-04-27T18:19:21.271Z,9.80
2023-04-27T18:21:51.267Z,9.80
2023-04-27T18:24:21.120Z,9.80
2023-04-27T18:26:48.432Z,9.70
2023-04-27T18:29:18.804Z,9.70
2023-04-27T18:31:50.356Z,9.70
2023-04-27T18:34:17.764Z,9.60
2023-04-27T18:36:55.806Z,9.60
2023-04-27T18:39:26.100Z,9.50
2023-04-27T18:42:01.300Z,9.40
2023-04-27T18:44:28.437Z,9.30
2023-04-27T18:46:57.097Z,9.30
2023-04-27T18:49:31.112Z,9.20
2023-04-27T18:52:02.729Z,9.20
2023-04-27T18:54:38.390Z,9.20
2023-04-27T18:57:13.093Z,9.10
2023-04-27T18:59:42.768Z,9.00
2023-04-27T19:02:17.117Z,9.00
2023-04-27T19:04:52.873Z,8.90
2023-04-27T19:07:33.169Z,8.90
2023-04-27T19:10:01.647Z,8.80
2023-04-27T19:12:28.896Z,8.70
2023-04-27T19:14:56.534Z,8.70
2023-04-27T19:17:26.984Z,8.70
2023-04-27T19:19:55.455Z,8.60
2023-04-27T19:22:27.258Z,8.50
2023-04-27T19:24:54.409Z,8.40
2023-04-27T19:27:24.369Z,8.40
2023-04-27T19:29:54.850Z,8.30
2023-04-27T19:32:28.752Z,8.30
2023-04-27T19:35:05.005Z,8.20
2023-04-27T19:37:34.955Z,8.20
2023-04-27T19:40:08.249Z,8.10
2023-04-27T19:42:35.907Z,8.00
2023-04-27T19:45:04.165Z,8.00
2023-04-27T19:47:31.767Z,8.00
2023-04-27T19:50:00.434Z,8.00
2023-04-27T19:52:30.244Z,7.90
2023-04-27T19:55:07.331Z,7.90
2023-04-27T19:57:38.539Z,7.90
2023-04-27T20:00:12.497Z,7.80
2023-04-27T20:02:47.972Z,7.80
2023-04-27T20:05:15.730Z,7.70
2023-04-27T20:07:46.579Z,7.70
2023-04-27T20:10:13.446Z,7.70
2023-04-27T20:12:51.578Z,7.60
2023-04-27T20:15:22.687Z,7.60
2023-04-27T20:17:49.490Z,7.50
2023-04-27T20:20:18.690Z,7.50
2023-04-27T20:22:46.057Z,7.40
2023-04-27T20:25:14.859Z,7.40
2023-04-27T20:27:42.143Z,7.40
2023-04-27T20:30:09.181Z,7.40
2023-04-27T20:32:36.394Z,7.40
2023-04-27T20:35:04.419Z,7.30
2023-04-27T20:37:32.401Z,7.30
2023-04-27T20:39:59.361Z,7.20
2023-04-27T20:42:26.257Z,7.20
2023-04-27T20:44:54.908Z,7.20
2023-04-27T20:47:21.945Z,7.20
2023-04-27T20:49:48.862Z,7.20
2023-04-27T20:52:15.885Z,7.20
2023-04-27T20:54:42.891Z,7.20
2023-04-27T20:57:13.775Z,7.20
2023-04-27T20:59:41.343Z,7.20
2023-04-27T21:02:08.702Z,7.20
2023-04-27T21:04:36.180Z,7.10
2023-04-27T21:07:03.184Z,7.10
2023-04-27T21:09:30.102Z,7.10
2023-04-27T21:11:56.912Z,7.10
2023-04-27T21:14:23.914Z,7.20
2023-04-27T21:16:56.139Z,7.20
2023-04-27T21:19:25.291Z,7.20
2023-04-27T21:21:52.036Z,7.20
2023-04-27T21:24:19.841Z,7.20
2023-04-27T21:26:46.707Z,7.30
2023-04-27T21:29:13.509Z,7.20
2023-04-27T21:31:40.464Z,7.20
2023-04-27T21:34:08.084Z,7.20
2023-04-27T21:36:35.078Z,7.20
2023-04-27T21:39:06.371Z,7.10
2023-04-27T21:41:34.987Z,7.10
2023-04-27T21:44:02.383Z,7.10
2023-04-27T21:46:29.223Z,7.10
2023-04-27T21:48:56.110Z,7.10
2023-04-27T21:51:22.846Z,7.00
2023-04-27T21:53:49.864Z,7.10
2023-04-27T21:56:16.665Z,7.00
2023-04-27T21:58:43.447Z,7.00
2023-04-27T22:01:13.315Z,7.00
2023-04-27T22:03:42.686Z,7.00
2023-04-27T22:06:12.046Z,7.00
2023-04-27T22:08:39.008Z,7.00
2023-04-27T22:11:06.195Z,6.90
2023-04-27T22:13:32.983Z,7.00
2023-04-27T22:16:00.375Z,7.00
2023-04-27T22:18:27.266Z,7.00
2023-04-27T22:20:54.954Z,7.00
2023-04-27T22:23:21.741Z,7.00
2023-04-27T22:25:49.039Z,7.00
2023-04-27T22:28:16.219Z,7.00
2023-04-27T22:30:43.168Z,7.00
2023-04-27T22:33:10.404Z,7.00
2023-04-27T22:35:37.486Z,7.00
2023-04-27T22:38:04.408Z,6.90
2023-04-27T22:40:31.318Z,6.90
2023-04-27T22:42:58.159Z,6.80
2023-04-27T22:45:24.960Z,6.80
2023-04-27T22:47:51.719Z,6.80
2023-04-27T22:50:18.850Z,6.80
2023-04-27T22:52:45.916Z,6.80
2023-04-27T22:55:12.833Z,6.70
2023-04-27T22:57:40.387Z,6.70
2023-04-27T23:00:10.967Z,6.70
2023-04-27T23:02:38.786Z,6.70
2023-04-27T23:05:07.062Z,6.70
2023-04-27T23:07:33.950Z,6.60
2023-04-27T23:10:12.724Z,6.60
2023-04-27T23:12:39.798Z,6.60
2023-04-27T23:15:06.869Z,6.60
2023-04-27T23:17:33.765Z,6.50
2023-04-27T23:20:01.541Z,6.50
2023-04-27T23:22:28.415Z,6.40
2023-04-27T23:24:55.736Z,6.40
2023-04-27T23:27:24.542Z,6.40
2023-04-27T23:29:51.340Z,6.40
2023-04-27T23:32:18.173Z,6.30
2023-04-27T23:34:44.927Z,6.30
2023-04-27T23:37:11.992Z,6.30
2023-04-27T23:39:38.706Z,6.30
2023-04-27T23:42:05.858Z,6.30
2023-04-27T23:44:32.610Z,6.30
2023-04-27T23:46:59.360Z,6.30
2023-04-27T23:49:26.151Z,6.20
2023-04-27T23:51:53.077Z,6.20
2023-04-27T23:54:19.789Z,6.10
2023-04-27T23:56:47.160Z,6.10
2023-04-27T23:59:15.003Z,6.10
